Time;durP1;ratioP1;P1;durP2;ratioP2;P2;SDS_P1;SDS_P2;PMS_P1;PMS_P2;Temp;Humidity;BMP_temperature;BMP_pressure;BME280_temperature;BME280_humidity;BME280_pressure;Samples;Min_cycle;Max_cycle;Signal;HPM_P1;HPM_P2
2021/12/13 00:02:24;;;;;;;5.30;3.90;;;8.40;99.90;;;;;;4994436;28;20473;-54
2021/12/13 00:04:59;;;;;;;3.93;3.63;;;8.40;99.90;;;;;;4993850;28;20391;-54
2021/12/13 00:07:29;;;;;;;6.80;4.80;;;8.40;99.90;;;;;;4993983;28;20406;-50
2021/12/13 00:09:59;;;;;;;4.50;3.77;;;8.40;99.90;;;;;;4994192;28;20459;-51
2021/12/13 00:12:36;;;;;;;5.00;4.10;;;8.40;99.90;;;;;;4994007;28;20414;-52
2021/12/13 00:15:06;;;;;;;4.90;4.40;;;8.50;99.90;;;;;;4992956;28;20857;-52
2021/12/13 00:17:52;;;;;;;7.10;5.60;;;8.50;99.90;;;;;;4994324;28;20743;-51
2021/12/13 00:20:36;;;;;;;7.10;5.40;;;8.30;99.90;;;;;;4993754;28;20414;-56
2021/12/13 00:23:18;;;;;;;7.10;5.13;;;8.30;99.90;;;;;;4994071;28;20422;-54
2021/12/13 00:25:48;;;;;;;9.03;4.87;;;8.30;99.90;;;;;;4993840;28;20457;-53
2021/12/13 00:28:17;;;;;;;6.00;5.40;;;8.30;99.90;;;;;;4993402;28;20912;-52
2021/12/13 00:31:11;;;;;;;4.80;4.07;;;8.40;99.90;;;;;;4992470;28;20475;-51
2021/12/13 00:34:11;;;;;;;6.70;4.70;;;8.40;99.90;;;;;;4993028;28;20583;-54
2021/12/13 00:37:05;;;;;;;6.33;4.10;;;8.40;99.90;;;;;;4989611;28;20414;-52
2021/12/13 00:39:47;;;;;;;7.87;5.03;;;8.50;99.90;;;;;;4953416;28;20849;-50
2021/12/13 00:42:14;;;;;;;6.90;4.77;;;8.50;99.90;;;;;;4993778;28;20397;-50
2021/12/13 00:44:49;;;;;;;7.97;5.30;;;8.40;99.90;;;;;;4993240;28;20405;-51
2021/12/13 00:47:36;;;;;;;9.57;6.47;;;8.40;99.90;;;;;;4993451;28;20406;-51
2021/12/13 00:50:08;;;;;;;7.37;5.03;;;8.40;99.90;;;;;;4993455;28;20427;-52
2021/12/13 00:52:36;;;;;;;6.40;4.43;;;8.40;99.90;;;;;;4993721;28;20478;-53
2021/12/13 00:55:09;;;;;;;5.90;5.27;;;8.40;99.90;;;;;;4993598;28;20451;-56
2021/12/13 00:57:40;;;;;;;5.93;4.90;;;8.40;99.90;;;;;;4993381;28;20451;-54
2021/12/13 01:00:28;;;;;;;6.10;5.17;;;8.30;99.90;;;;;;4993071;28;20473;-56
2021/12/13 01:02:59;;;;;;;7.33;6.20;;;8.20;99.90;;;;;;4993450;28;20393;-53
2021/12/13 01:05:58;;;;;;;6.23;5.00;;;8.10;99.90;;;;;;4993376;28;20415;-55
2021/12/13 01:08:42;;;;;;;5.60;5.00;;;8.00;99.90;;;;;;4994232;28;20393;-54
2021/12/13 01:11:36;;;;;;;5.73;5.07;;;8.00;99.90;;;;;;4997337;28;20892;-52
2021/12/13 01:14:33;;;;;;;7.27;6.40;;;7.90;99.90;;;;;;4996823;28;20538;-52
2021/12/13 01:17:13;;;;;;;6.10;4.90;;;7.80;99.90;;;;;;4996997;28;20407;-51
2021/12/13 01:20:05;;;;;;;10.13;5.40;;;7.80;99.90;;;;;;4996813;28;20427;-52
2021/12/13 01:22:58;;;;;;;7.80;6.97;;;7.80;99.90;;;;;;4996627;28;20409;-51
2021/12/13 01:26:13;;;;;;;6.50;5.80;;;7.80;99.90;;;;;;4997048;28;20414;-51
2021/12/13 01:28:47;;;;;;;10.20;5.80;;;7.70;99.90;;;;;;4996674;28;20396;-52
2021/12/13 01:31:18;;;;;;;5.80;5.20;;;7.70;99.90;;;;;;4996201;28;20411;-57
2021/12/13 01:33:46;;;;;;;7.23;4.57;;;7.70;99.90;;;;;;4996803;28;20454;-49
2021/12/13 01:36:23;;;;;;;10.23;6.60;;;7.80;99.90;;;;;;4996837;28;20402;-54
2021/12/13 01:38:52;;;;;;;6.13;5.40;;;7.90;99.90;;;;;;4996946;28;20901;-51
2021/12/13 01:41:31;;;;;;;5.97;5.37;;;7.90;99.90;;;;;;4996512;28;20502;-54
2021/12/13 01:44:01;;;;;;;8.20;5.63;;;7.90;99.90;;;;;;4996791;28;20503;-56
2021/12/13 01:46:27;;;;;;;7.00;5.37;;;7.90;99.90;;;;;;4995984;28;20390;-55
2021/12/13 01:48:54;;;;;;;5.93;5.13;;;8.00;99.90;;;;;;4996494;28;20411;-55
2021/12/13 01:51:26;;;;;;;6.13;5.40;;;8.00;99.90;;;;;;4996256;28;20414;-53
2021/12/13 01:54:16;;;;;;;7.20;5.80;;;8.00;99.90;;;;;;4996485;28;20800;-54
2021/12/13 01:57:10;;;;;;;6.83;6.03;;;7.90;99.90;;;;;;4996270;28;20399;-54
2021/12/13 01:59:50;;;;;;;9.07;5.73;;;7.90;99.90;;;;;;4995854;28;20966;-56
2021/12/13 02:02:25;;;;;;;6.30;5.30;;;7.90;99.90;;;;;;4996129;28;20398;-56
2021/12/13 02:05:02;;;;;;;6.00;5.40;;;7.90;99.90;;;;;;4996661;28;20399;-54
2021/12/13 02:07:37;;;;;;;5.80;4.90;;;7.90;99.90;;;;;;4996282;28;20421;-50
2021/12/13 02:10:07;;;;;;;7.90;6.20;;;8.10;99.90;;;;;;4996196;28;20476;-54
2021/12/13 02:12:36;;;;;;;6.13;5.20;;;8.10;99.90;;;;;;4995915;28;20410;-53
2021/12/13 02:17:47;;;;;;;6.13;5.13;;;8.30;99.90;;;;;;4995959;28;20387;-53
2021/12/13 02:20:32;;;;;;;5.27;4.77;;;8.30;99.90;;;;;;4994822;28;20422;-50
2021/12/13 02:22:57;;;;;;;5.73;5.13;;;8.40;99.90;;;;;;4995835;28;20151;-55
2021/12/13 02:25:31;;;;;;;10.87;7.20;;;8.20;99.90;;;;;;4978358;28;20410;-56
2021/12/13 02:27:59;;;;;;;9.03;6.83;;;8.20;99.90;;;;;;4995990;28;20243;-57
2021/12/13 02:30:43;;;;;;;10.30;6.70;;;8.20;99.90;;;;;;4995544;28;20435;-56
2021/12/13 02:33:14;;;;;;;7.93;5.77;;;8.30;99.90;;;;;;4995203;28;20434;-55
2021/12/13 02:35:43;;;;;;;8.57;6.50;;;8.20;99.90;;;;;;4995992;28;20523;-54
2021/12/13 02:38:11;;;;;;;8.90;6.47;;;8.20;99.90;;;;;;4995491;28;20896;-57
2021/12/13 02:40:38;;;;;;;9.70;6.47;;;8.20;99.90;;;;;;4995459;28;20429;-55
2021/12/13 02:43:07;;;;;;;8.80;5.70;;;8.30;99.90;;;;;;4995577;28;20402;-54
2021/12/13 02:45:43;;;;;;;10.13;7.47;;;8.30;99.90;;;;;;4992354;28;20433;-54
2021/12/13 02:48:31;;;;;;;11.60;5.73;;;8.30;99.90;;;;;;4984383;28;20494;-55
2021/12/13 02:51:32;;;;;;;11.77;7.70;;;8.20;99.90;;;;;;4978856;28;20546;-56
2021/12/13 02:54:07;;;;;;;9.33;6.03;;;8.20;99.90;;;;;;4954827;28;20876;-54
2021/12/13 02:56:36;;;;;;;7.33;5.83;;;8.20;99.90;;;;;;4976210;28;20778;-53
2021/12/13 03:01:37;;;;;;;9.20;6.70;;;8.20;99.90;;;;;;5032828;23;20488;-60
2021/12/13 03:04:07;;;;;;;8.10;6.40;;;8.20;99.90;;;;;;5004617;28;20410;-61
2021/12/13 03:06:40;;;;;;;8.27;6.40;;;8.30;99.90;;;;;;4994838;28;20410;-61
2021/12/13 03:09:11;;;;;;;6.67;5.97;;;8.30;99.90;;;;;;4977405;28;20402;-61
2021/12/13 03:11:37;;;;;;;7.23;5.90;;;8.30;99.90;;;;;;4975618;28;20752;-60
2021/12/13 03:14:05;;;;;;;7.27;6.53;;;8.30;99.90;;;;;;4975630;28;20551;-61
2021/12/13 03:16:48;;;;;;;7.83;7.03;;;8.40;99.90;;;;;;4974883;28;20419;-61
2021/12/13 03:19:32;;;;;;;6.73;5.83;;;8.50;99.90;;;;;;4975378;28;20384;-61
2021/12/13 03:22:15;;;;;;;9.10;6.60;;;8.50;99.90;;;;;;4975142;28;20409;-61
2021/12/13 03:24:47;;;;;;;8.30;7.23;;;8.60;99.90;;;;;;4975530;28;20464;-61
2021/12/13 03:27:50;;;;;;;7.57;6.37;;;8.50;99.90;;;;;;4975161;28;20431;-61
2021/12/13 03:30:53;;;;;;;7.07;6.37;;;8.50;99.90;;;;;;4983264;28;20522;-61
2021/12/13 03:33:29;;;;;;;6.90;6.20;;;8.60;99.90;;;;;;4989803;28;20437;-61
2021/12/13 03:36:00;;;;;;;7.17;6.50;;;8.50;99.90;;;;;;4994848;28;20395;-59
2021/12/13 03:38:33;;;;;;;7.17;6.43;;;8.40;99.90;;;;;;4994852;28;20403;-61
2021/12/13 03:41:03;;;;;;;8.40;7.60;;;8.50;99.90;;;;;;4981231;28;20438;-61
2021/12/13 03:43:41;;;;;;;7.47;6.10;;;8.50;99.90;;;;;;4975355;28;20447;-61
2021/12/13 03:46:09;;;;;;;7.87;7.07;;;8.60;99.90;;;;;;4974682;28;20437;-61
2021/12/13 03:48:36;;;;;;;8.10;6.57;;;8.60;99.90;;;;;;4974907;28;20408;-61
2021/12/13 03:51:10;;;;;;;10.53;7.77;;;8.60;99.90;;;;;;4974750;28;20435;-59
2021/12/13 03:53:37;;;;;;;6.63;6.03;;;8.50;99.90;;;;;;4974499;28;20408;-61
2021/12/13 03:56:07;;;;;;;7.00;6.37;;;8.40;99.90;;;;;;4974577;28;20404;-59
2021/12/13 03:58:36;;;;;;;7.73;6.50;;;8.40;99.90;;;;;;4974974;28;20411;-61
2021/12/13 04:01:21;;;;;;;7.13;6.43;;;8.30;99.90;;;;;;4988619;28;20447;-61
2021/12/13 04:03:53;;;;;;;8.73;6.97;;;8.40;99.90;;;;;;4994013;28;20388;-61
2021/12/13 04:06:19;;;;;;;7.40;6.30;;;8.50;99.90;;;;;;4994204;28;20395;-61
2021/12/13 04:08:57;;;;;;;8.87;7.30;;;8.40;99.90;;;;;;4994096;28;20414;-60
2021/12/13 04:11:24;;;;;;;7.73;6.67;;;8.40;99.90;;;;;;4993787;28;20427;-59
2021/12/13 04:14:07;;;;;;;8.80;7.80;;;8.50;99.90;;;;;;4976386;28;20474;-60
2021/12/13 04:16:49;;;;;;;8.43;6.93;;;8.40;99.90;;;;;;4994186;28;20395;-60
2021/12/13 04:19:21;;;;;;;6.63;6.00;;;8.40;99.90;;;;;;4994137;28;20387;-60
2021/12/13 04:22:11;;;;;;;9.10;6.97;;;8.40;99.90;;;;;;4975941;28;20435;-61
2021/12/13 04:24:59;;;;;;;9.10;8.07;;;8.40;99.90;;;;;;4974305;28;20392;-61
2021/12/13 04:28:02;;;;;;;7.83;7.00;;;8.20;99.90;;;;;;4974527;28;20403;-59
2021/12/13 04:30:36;;;;;;;7.50;6.80;;;8.20;99.90;;;;;;4984181;28;20560;-61
2021/12/13 04:33:18;;;;;;;8.53;6.50;;;8.10;99.90;;;;;;4976192;28;20414;-60
2021/12/13 04:35:48;;;;;;;7.70;6.90;;;8.30;99.90;;;;;;4994143;28;20427;-59
2021/12/13 04:38:17;;;;;;;10.00;7.43;;;8.30;99.90;;;;;;4993722;28;20403;-60
2021/12/13 04:40:43;;;;;;;8.83;6.60;;;8.30;99.90;;;;;;4982368;28;20441;-59
2021/12/13 04:43:10;;;;;;;8.20;6.50;;;8.30;99.90;;;;;;4974610;28;20407;-59
2021/12/13 04:45:40;;;;;;;10.27;8.17;;;8.30;99.90;;;;;;4977435;28;20214;-58
2021/12/13 04:48:14;;;;;;;9.30;7.50;;;8.40;99.90;;;;;;4978083;28;20402;-61
2021/12/13 04:51:06;;;;;;;10.90;7.20;;;8.30;99.90;;;;;;4977835;28;20426;-61
2021/12/13 04:53:40;;;;;;;9.13;6.80;;;8.30;99.90;;;;;;4977774;28;20909;-60
2021/12/13 04:56:10;;;;;;;10.67;8.43;;;8.30;99.90;;;;;;4978147;28;20383;-61
2021/12/13 04:58:37;;;;;;;11.00;8.07;;;8.30;99.90;;;;;;4977856;28;20399;-60
2021/12/13 05:01:06;;;;;;;12.47;7.20;;;8.30;99.90;;;;;;4991890;28;20627;-60
2021/12/13 05:03:36;;;;;;;7.03;6.30;;;8.30;99.90;;;;;;4997485;28;20415;-60
2021/12/13 05:06:14;;;;;;;10.97;7.07;;;8.30;99.90;;;;;;4997245;28;20394;-60
2021/12/13 05:08:41;;;;;;;7.60;6.80;;;8.20;99.90;;;;;;4997248;28;20383;-60
2021/12/13 05:11:08;;;;;;;7.93;7.10;;;8.20;99.90;;;;;;4996989;28;20431;-59
2021/12/13 05:13:51;;;;;;;7.00;5.90;;;8.30;99.90;;;;;;4997361;28;20415;-58
2021/12/13 05:16:25;;;;;;;9.23;8.10;;;8.30;99.90;;;;;;4996691;28;20425;-60
2021/12/13 05:18:54;;;;;;;9.47;6.80;;;8.40;99.90;;;;;;4997198;28;20394;-61
2021/12/13 05:21:50;;;;;;;8.90;6.40;;;8.30;99.90;;;;;;4996606;28;20426;-61
2021/12/13 05:24:20;;;;;;;9.90;6.67;;;8.30;99.90;;;;;;4995575;28;20418;-61
2021/12/13 05:26:57;;;;;;;13.83;8.33;;;8.30;99.90;;;;;;4997005;28;20405;-60
2021/12/13 05:29:42;;;;;;;8.30;7.50;;;8.30;99.90;;;;;;4996716;28;20406;-60
2021/12/13 05:32:16;;;;;;;10.13;7.50;;;8.30;99.90;;;;;;4997163;28;20852;-61
2021/12/13 05:35:08;;;;;;;14.23;9.30;;;8.30;99.90;;;;;;4997026;28;20467;-60
2021/12/13 05:37:53;;;;;;;8.93;7.97;;;8.40;99.90;;;;;;4994144;28;20794;-60
2021/12/13 05:40:31;;;;;;;9.77;8.23;;;8.40;99.90;;;;;;4961606;28;20443;-60
2021/12/13 05:43:00;;;;;;;8.67;7.77;;;8.40;99.90;;;;;;4957875;29;20404;-60
2021/12/13 05:45:39;;;;;;;7.30;6.53;;;8.50;99.90;;;;;;4973337;28;20416;-61
2021/12/13 05:48:13;;;;;;;9.07;7.93;;;8.60;99.90;;;;;;4975777;28;20426;-61
2021/12/13 05:50:47;;;;;;;8.67;7.80;;;8.60;99.90;;;;;;4977217;28;20459;-61
2021/12/13 05:53:19;;;;;;;11.57;9.10;;;8.60;99.90;;;;;;4976876;28;20396;-61
2021/12/13 05:56:10;;;;;;;10.47;9.10;;;8.60;99.90;;;;;;4975174;28;20451;-61
2021/12/13 05:58:47;;;;;;;9.03;7.13;;;8.50;99.90;;;;;;4957748;29;20393;-61
2021/12/13 06:01:26;;;;;;;8.67;7.83;;;8.50;99.90;;;;;;4978425;28;20467;-61
2021/12/13 06:04:07;;;;;;;10.70;9.43;;;8.50;99.90;;;;;;4958423;28;20411;-61
2021/12/13 06:06:47;;;;;;;9.87;7.70;;;8.40;99.90;;;;;;4959439;28;20410;-61
2021/12/13 06:09:48;;;;;;;9.80;8.70;;;8.40;99.90;;;;;;4977339;28;20425;-61
2021/12/13 06:12:31;;;;;;;9.17;7.97;;;8.30;99.90;;;;;;4977076;28;20423;-61
2021/12/13 06:15:04;;;;;;;7.33;6.63;;;8.30;99.90;;;;;;4976385;28;20465;-61
2021/12/13 06:17:32;;;;;;;9.83;7.90;;;8.40;99.90;;;;;;4976845;28;20390;-61
2021/12/13 06:20:10;;;;;;;8.40;7.00;;;8.40;99.90;;;;;;4964575;28;20432;-61
2021/12/13 06:22:36;;;;;;;11.23;7.10;;;8.50;99.90;;;;;;4959191;28;20459;-62
2021/12/13 06:25:09;;;;;;;12.73;6.53;;;8.50;99.90;;;;;;4972999;28;20412;-58
2021/12/13 06:28:00;;;;;;;10.97;7.20;;;8.50;99.90;;;;;;4972464;28;20507;-61
2021/12/13 06:30:27;;;;;;;10.40;8.23;;;8.40;99.90;;;;;;4992294;28;20443;-58
2021/12/13 06:33:03;;;;;;;8.80;7.33;;;8.50;99.90;;;;;;4995999;28;20422;-61
2021/12/13 06:35:29;;;;;;;8.43;7.37;;;8.50;99.90;;;;;;4995790;28;20446;-59
2021/12/13 06:37:55;;;;;;;8.40;7.17;;;8.60;99.90;;;;;;4995548;28;20515;-61
2021/12/13 06:40:27;;;;;;;9.30;8.40;;;8.60;99.90;;;;;;4978526;28;20444;-61
2021/12/13 06:43:00;;;;;;;7.50;6.80;;;8.60;99.90;;;;;;4976625;28;20386;-59
2021/12/13 06:45:31;;;;;;;10.17;8.00;;;8.80;99.90;;;;;;4968820;28;20415;-61
2021/12/13 06:47:59;;;;;;;6.90;6.20;;;8.80;99.90;;;;;;4972969;28;20469;-61
2021/12/13 06:50:34;;;;;;;10.33;6.80;;;8.80;99.90;;;;;;4975831;28;20811;-61
2021/12/13 06:53:19;;;;;;;10.00;7.90;;;8.70;99.90;;;;;;4975801;28;20392;-60
2021/12/13 06:55:46;;;;;;;8.13;6.67;;;8.70;99.90;;;;;;4969577;28;20599;-59
2021/12/13 06:58:17;;;;;;;17.60;12.83;;;8.80;99.90;;;;;;4956884;29;20427;-61
2021/12/13 07:00:43;;;;;;;11.70;9.20;;;8.80;99.90;;;;;;4979945;28;20562;-60
2021/12/13 07:03:15;;;;;;;13.87;9.40;;;8.60;99.90;;;;;;4995741;28;20416;-60
2021/12/13 07:05:47;;;;;;;12.60;10.60;;;8.50;99.90;;;;;;4995210;28;20859;-60
2021/12/13 07:08:21;;;;;;;10.87;9.40;;;8.40;99.90;;;;;;4995159;28;20394;-61
2021/12/13 07:10:53;;;;;;;18.30;12.00;;;8.40;99.90;;;;;;4994888;28;20502;-60
2021/12/13 07:13:40;;;;;;;11.43;9.90;;;8.50;99.90;;;;;;4994964;28;20775;-59
2021/12/13 07:16:21;;;;;;;9.33;8.20;;;8.60;99.90;;;;;;4995459;28;20399;-60
2021/12/13 07:18:48;;;;;;;9.00;8.07;;;8.60;99.90;;;;;;4996140;28;20793;-58
2021/12/13 07:21:30;;;;;;;14.10;10.03;;;8.60;99.90;;;;;;4995610;28;20420;-58
2021/12/13 07:24:14;;;;;;;13.57;8.90;;;8.40;99.90;;;;;;4996967;28;20384;-59
2021/12/13 07:26:49;;;;;;;12.73;10.27;;;8.50;99.90;;;;;;4996122;28;20398;-60
2021/12/13 07:29:46;;;;;;;9.63;7.97;;;8.40;99.90;;;;;;4996350;28;20411;-58
2021/12/13 07:32:29;;;;;;;13.63;9.40;;;8.30;99.90;;;;;;4980557;28;20414;-60
2021/12/13 07:35:24;;;;;;;15.40;11.33;;;8.20;99.90;;;;;;4997985;28;20439;-61
2021/12/13 07:38:26;;;;;;;12.50;10.43;;;8.10;99.90;;;;;;4999105;28;20442;-60
2021/12/13 07:40:55;;;;;;;15.53;10.20;;;8.20;99.90;;;;;;5000132;28;21016;-59
2021/12/13 07:43:21;;;;;;;10.20;8.93;;;8.20;99.90;;;;;;4999400;28;20904;-61
2021/12/13 07:46:11;;;;;;;13.80;11.77;;;8.10;99.90;;;;;;4995697;28;20418;-59
2021/12/13 07:48:42;;;;;;;11.30;10.10;;;8.20;99.90;;;;;;4995416;28;20152;-59
2021/12/13 07:51:18;;;;;;;13.33;11.93;;;8.30;99.90;;;;;;4994941;28;20798;-61
2021/12/13 07:53:52;;;;;;;14.00;10.10;;;8.40;99.90;;;;;;4994837;28;20382;-60
2021/12/13 07:56:33;;;;;;;15.00;11.00;;;8.40;99.90;;;;;;4984651;28;20901;-61
2021/12/13 07:59:02;;;;;;;12.90;10.67;;;8.60;99.90;;;;;;4975241;28;20416;-60
2021/12/13 08:01:31;;;;;;;12.50;10.00;;;8.60;99.90;;;;;;4993446;28;20485;-61
2021/12/13 08:04:05;;;;;;;11.90;9.93;;;8.60;99.90;;;;;;4995767;28;20457;-60
2021/12/13 08:06:36;;;;;;;15.27;11.53;;;8.70;99.90;;;;;;4994888;28;20413;-59
2021/12/13 08:09:06;;;;;;;19.03;11.80;;;8.50;99.90;;;;;;4995879;28;20845;-57
2021/12/13 08:11:42;;;;;;;12.43;10.80;;;8.60;99.90;;;;;;4995030;28;20423;-59
2021/12/13 08:14:09;;;;;;;12.77;10.50;;;8.60;99.90;;;;;;4994910;28;20439;-59
2021/12/13 08:16:45;;;;;;;14.50;10.97;;;8.60;99.90;;;;;;4995555;28;20418;-59
2021/12/13 08:19:25;;;;;;;13.70;11.93;;;8.70;99.90;;;;;;4995514;28;20769;-62
2021/12/13 08:22:00;;;;;;;12.47;10.30;;;8.80;99.90;;;;;;4994213;28;20732;-60
2021/12/13 08:24:27;;;;;;;13.27;10.50;;;8.90;99.90;;;;;;4995154;28;20391;-59
2021/12/13 08:26:59;;;;;;;10.43;9.43;;;8.90;99.90;;;;;;4993981;28;20889;-59
2021/12/13 08:29:31;;;;;;;15.73;10.87;;;8.90;99.90;;;;;;4981898;28;20771;-61
2021/12/13 08:32:00;;;;;;;11.97;9.63;;;9.00;99.90;;;;;;4993588;28;20433;-60
2021/12/13 08:34:45;;;;;;;12.43;11.13;;;9.00;99.90;;;;;;4994194;28;21009;-61
2021/12/13 08:37:15;;;;;;;12.20;11.00;;;9.10;99.90;;;;;;4993626;28;20490;-61
2021/12/13 08:39:41;;;;;;;11.90;10.67;;;9.30;99.90;;;;;;4993899;28;20494;-60
2021/12/13 08:42:17;;;;;;;16.00;12.30;;;9.30;99.90;;;;;;4993934;28;20409;-61
2021/12/13 08:45:16;;;;;;;14.93;9.70;;;9.20;99.90;;;;;;4994022;28;20403;-61
2021/12/13 08:47:52;;;;;;;15.37;10.10;;;9.30;99.90;;;;;;4979102;28;20462;-60
2021/12/13 08:50:49;;;;;;;12.57;9.93;;;9.40;99.90;;;;;;4994428;28;20824;-60
2021/12/13 08:53:27;;;;;;;12.33;10.73;;;9.50;99.90;;;;;;4986943;28;20435;-62
2021/12/13 08:56:02;;;;;;;13.63;9.57;;;9.60;99.90;;;;;;4969128;28;20441;-57
2021/12/13 08:58:28;;;;;;;12.57;10.40;;;9.80;99.90;;;;;;4974861;28;20441;-62
2021/12/13 09:00:59;;;;;;;9.97;8.90;;;9.90;99.90;;;;;;5010209;23;20494;-55
2021/12/13 09:03:39;;;;;;;15.40;11.77;;;10.00;99.90;;;;;;5012972;28;20851;-55
2021/12/13 09:06:16;;;;;;;10.60;9.50;;;10.10;99.90;;;;;;5012931;28;20415;-55
2021/12/13 09:09:12;;;;;;;12.77;9.93;;;10.20;99.90;;;;;;5012726;28;20391;-55
2021/12/13 09:11:44;;;;;;;12.27;9.67;;;10.20;99.90;;;;;;5003724;28;20433;-53
2021/12/13 09:14:19;;;;;;;11.00;9.40;;;10.00;99.90;;;;;;4993145;28;20432;-53
2021/12/13 09:17:13;;;;;;;14.27;10.43;;;9.90;99.90;;;;;;4992918;28;20409;-55
2021/12/13 09:19:41;;;;;;;14.00;10.10;;;10.10;99.90;;;;;;4993505;28;20387;-52
2021/12/13 09:22:19;;;;;;;11.43;9.97;;;10.30;99.90;;;;;;5001279;28;20438;-52
2021/12/13 09:24:47;;;;;;;13.90;11.73;;;10.20;99.90;;;;;;5012679;28;20410;-54
2021/12/13 09:27:22;;;;;;;14.63;9.20;;;10.20;99.90;;;;;;5010198;28;20964;-50
2021/12/13 09:30:27;;;;;;;12.83;10.37;;;10.10;99.90;;;;;;4993799;28;20768;-51
2021/12/13 09:33:14;;;;;;;12.90;10.90;;;10.10;99.90;;;;;;4956809;28;20940;-56
2021/12/13 09:35:46;;;;;;;9.23;8.10;;;10.30;99.90;;;;;;5014091;28;20446;-53
2021/12/13 09:38:17;;;;;;;13.50;10.30;;;10.40;99.90;;;;;;5015962;28;20399;-54
2021/12/13 09:40:47;;;;;;;14.10;12.13;;;10.50;99.90;;;;;;5016522;28;20545;-50
2021/12/13 09:43:13;;;;;;;11.20;8.40;;;10.50;99.90;;;;;;5016379;28;20405;-54
2021/12/13 09:45:47;;;;;;;11.93;10.67;;;10.40;99.90;;;;;;4998582;28;20452;-55
2021/12/13 09:48:35;;;;;;;13.63;10.40;;;10.50;99.90;;;;;;5012840;28;20458;-50
2021/12/13 09:51:07;;;;;;;13.77;8.87;;;10.70;99.90;;;;;;4996247;28;20445;-56
2021/12/13 09:53:37;;;;;;;12.37;9.47;;;10.80;99.90;;;;;;4996093;28;20392;-53
2021/12/13 09:56:11;;;;;;;10.83;8.37;;;10.90;99.90;;;;;;4996392;28;20447;-51
2021/12/13 09:58:57;;;;;;;11.83;8.63;;;11.10;99.90;;;;;;4978833;28;20432;-55
2021/12/13 10:01:30;;;;;;;9.23;7.60;;;11.20;99.90;;;;;;4996032;28;20479;-56
2021/12/13 10:04:07;;;;;;;9.10;7.80;;;11.30;99.90;;;;;;5000522;28;20432;-56
2021/12/13 10:06:56;;;;;;;10.13;8.03;;;11.30;99.90;;;;;;5015897;28;20386;-55
2021/12/13 10:09:36;;;;;;;9.27;7.70;;;11.40;99.90;;;;;;5015864;28;20396;-51
2021/12/13 10:12:10;;;;;;;9.60;7.70;;;11.20;99.90;;;;;;5015842;28;20413;-49
2021/12/13 10:14:45;;;;;;;7.93;7.13;;;11.40;99.90;;;;;;5015848;28;20527;-54
2021/12/13 10:17:14;;;;;;;7.50;6.53;;;11.50;99.90;;;;;;5015768;28;20395;-53
2021/12/13 10:19:45;;;;;;;9.03;7.40;;;11.60;99.90;;;;;;5015242;28;20845;-50
2021/12/13 10:22:13;;;;;;;9.33;7.80;;;11.40;99.90;;;;;;5015324;28;20395;-56
2021/12/13 10:24:51;;;;;;;10.30;8.70;;;11.50;99.90;;;;;;5015613;28;20909;-54
2021/12/13 10:27:18;;;;;;;10.30;8.70;;;11.30;99.90;;;;;;5015706;28;20390;-56
2021/12/13 10:29:53;;;;;;;9.53;7.87;;;11.60;99.90;;;;;;5015173;28;20502;-54
2021/12/13 10:32:28;;;;;;;8.27;7.20;;;11.80;99.90;;;;;;5015411;28;20413;-53
2021/12/13 10:35:07;;;;;;;8.03;6.80;;;11.70;99.90;;;;;;4995656;28;20445;-53
2021/12/13 10:37:35;;;;;;;6.23;5.50;;;11.80;99.90;;;;;;4975989;28;20884;-49
2021/12/13 10:40:10;;;;;;;6.90;5.60;;;11.60;99.90;;;;;;4976177;28;20451;-50
2021/12/13 10:42:41;;;;;;;6.67;5.77;;;10.90;99.90;;;;;;4975052;28;20495;-53
2021/12/13 10:45:15;;;;;;;8.10;7.30;;;11.00;99.90;;;;;;4976629;28;20744;-53
2021/12/13 10:47:44;;;;;;;8.53;7.63;;;11.10;99.90;;;;;;4958788;28;20470;-52
2021/12/13 10:50:24;;;;;;;6.10;5.50;;;11.10;99.90;;;;;;4994140;28;20438;-52
2021/12/13 10:52:53;;;;;;;9.30;7.87;;;11.20;99.90;;;;;;4995080;28;20886;-51
2021/12/13 10:55:28;;;;;;;8.83;8.00;;;11.30;99.90;;;;;;4994859;28;20479;-51
2021/12/13 10:57:55;;;;;;;8.33;7.47;;;11.20;99.90;;;;;;4994991;28;20411;-51
2021/12/13 11:00:29;;;;;;;7.93;6.67;;;11.30;99.90;;;;;;4991338;28;20554;-55
2021/12/13 11:03:00;;;;;;;9.33;8.20;;;11.20;99.90;;;;;;4995189;28;20416;-56
2021/12/13 11:05:28;;;;;;;9.27;7.80;;;11.40;99.90;;;;;;5010556;28;20468;-52
2021/12/13 11:07:55;;;;;;;8.73;6.93;;;11.30;99.90;;;;;;4995068;28;20468;-54
2021/12/13 11:10:28;;;;;;;9.93;8.07;;;11.50;99.90;;;;;;4994755;28;20458;-54
2021/12/13 11:12:56;;;;;;;7.50;6.43;;;11.60;99.90;;;;;;4995226;28;20410;-57
2021/12/13 11:15:28;;;;;;;6.83;6.00;;;11.50;99.90;;;;;;4994896;28;20451;-56
2021/12/13 11:17:55;;;;;;;8.57;7.47;;;11.70;99.90;;;;;;4994992;28;20754;-56
2021/12/13 11:20:29;;;;;;;8.63;7.10;;;11.90;99.90;;;;;;4994383;28;20493;-53
2021/12/13 11:22:56;;;;;;;5.50;4.20;;;11.70;99.90;;;;;;4994575;28;20426;-56
2021/12/13 11:25:30;;;;;;;4.07;3.63;;;11.80;99.90;;;;;;4994845;28;20504;-54
2021/12/13 11:27:56;;;;;;;5.90;4.60;;;11.60;99.90;;;;;;4994498;28;20441;-54
2021/12/13 11:30:29;;;;;;;4.40;4.00;;;11.60;99.90;;;;;;4994662;28;20442;-51
2021/12/13 11:32:58;;;;;;;5.57;3.47;;;11.70;99.90;;;;;;4994501;28;20415;-56
2021/12/13 11:35:50;;;;;;;5.10;4.00;;;11.60;99.90;;;;;;5010548;28;20596;-56
2021/12/13 11:38:41;;;;;;;3.80;3.40;;;11.60;99.90;;;;;;5013886;28;20884;-55
2021/12/13 11:41:35;;;;;;;5.30;4.53;;;11.70;99.90;;;;;;5013673;28;21002;-56
2021/12/13 11:44:31;;;;;;;5.47;3.93;;;11.60;99.90;;;;;;4996177;28;20411;-57
2021/12/13 11:47:21;;;;;;;6.00;4.00;;;11.60;99.90;;;;;;5014007;28;20398;-52
2021/12/13 11:50:02;;;;;;;6.30;4.20;;;11.60;99.90;;;;;;5013678;28;20396;-53
2021/12/13 11:52:58;;;;;;;4.07;3.67;;;11.60;99.90;;;;;;5000961;28;20417;-54
2021/12/13 11:55:54;;;;;;;3.60;3.30;;;11.80;99.90;;;;;;4993770;28;20455;-51
2021/12/13 11:58:35;;;;;;;6.60;4.60;;;12.00;99.90;;;;;;4994280;28;20501;-54
2021/12/13 12:01:16;;;;;;;5.83;4.87;;;11.50;99.90;;;;;;4993629;28;20462;-56
2021/12/13 12:04:13;;;;;;;6.60;4.43;;;11.60;99.90;;;;;;4996679;28;20438;-55
2021/12/13 12:07:14;;;;;;;4.43;4.03;;;11.70;99.90;;;;;;5013849;28;20764;-57
2021/12/13 12:09:49;;;;;;;6.30;4.90;;;11.60;99.90;;;;;;5013514;28;20391;-57
2021/12/13 12:12:58;;;;;;;6.07;4.37;;;11.80;99.90;;;;;;5013671;28;20391;-55
2021/12/13 12:15:26;;;;;;;6.33;4.83;;;11.90;99.90;;;;;;5010248;28;20523;-55
2021/12/13 12:17:55;;;;;;;5.40;3.97;;;11.90;99.90;;;;;;4993059;28;20420;-56
2021/12/13 12:20:35;;;;;;;5.27;4.77;;;12.00;99.90;;;;;;4993664;28;20429;-56
2021/12/13 12:23:06;;;;;;;4.30;3.77;;;12.00;99.90;;;;;;4993891;28;20487;-57
2021/12/13 12:25:34;;;;;;;6.03;5.30;;;12.00;99.90;;;;;;4993782;28;20420;-55
2021/12/13 12:28:07;;;;;;;6.53;5.07;;;11.90;99.90;;;;;;4993603;28;20403;-55
2021/12/13 12:30:37;;;;;;;9.37;6.77;;;11.80;99.90;;;;;;4993875;28;20423;-53
2021/12/13 12:33:07;;;;;;;15.83;13.30;;;11.90;99.90;;;;;;4993845;28;20398;-53
2021/12/13 12:35:47;;;;;;;13.70;11.90;;;11.60;99.90;;;;;;5011057;28;20450;-54
2021/12/13 12:38:23;;;;;;;12.60;11.07;;;11.50;99.90;;;;;;5013110;28;20391;-55
2021/12/13 12:41:07;;;;;;;15.07;11.17;;;11.20;99.90;;;;;;5013646;28;20431;-56
2021/12/13 12:43:40;;;;;;;12.00;10.40;;;11.30;99.90;;;;;;4998827;28;20428;-57
2021/12/13 12:46:13;;;;;;;13.23;11.93;;;11.50;99.90;;;;;;4974406;28;20404;-57
2021/12/13 12:48:46;;;;;;;15.47;11.17;;;11.40;99.90;;;;;;4974273;28;20408;-57
2021/12/13 12:51:19;;;;;;;15.30;11.40;;;11.40;99.90;;;;;;4973641;28;20435;-57
2021/12/13 12:54:02;;;;;;;11.30;10.10;;;11.50;99.90;;;;;;4974751;28;20491;-55
2021/12/13 12:56:49;;;;;;;14.43;10.73;;;11.20;99.90;;;;;;4974485;28;20423;-57
2021/12/13 12:59:17;;;;;;;11.97;10.33;;;11.10;99.90;;;;;;4974759;28;20886;-52
2021/12/13 13:01:56;;;;;;;13.13;10.80;;;11.20;99.90;;;;;;4974258;28;20460;-58
2021/12/13 13:04:28;;;;;;;11.73;10.20;;;11.20;99.90;;;;;;4991120;28;20454;-57
2021/12/13 13:07:03;;;;;;;20.87;14.50;;;11.30;99.90;;;;;;5017105;28;20434;-55
2021/12/13 13:09:40;;;;;;;14.53;12.30;;;11.20;99.90;;;;;;5017407;28;20398;-53
2021/12/13 13:12:09;;;;;;;15.13;13.53;;;11.20;99.90;;;;;;5017232;28;20438;-55
2021/12/13 13:14:53;;;;;;;12.97;11.23;;;11.30;99.90;;;;;;5017156;28;20970;-54
2021/12/13 13:17:22;;;;;;;13.73;10.20;;;11.30;99.90;;;;;;5017104;28;20397;-56
2021/12/13 13:19:49;;;;;;;14.20;10.90;;;11.50;99.90;;;;;;5016364;28;20406;-56
2021/12/13 13:22:20;;;;;;;11.27;9.80;;;11.60;99.90;;;;;;5016265;28;20795;-57
2021/12/13 13:24:52;;;;;;;13.73;11.37;;;11.70;99.90;;;;;;5016764;28;20402;-57
2021/12/13 13:27:22;;;;;;;11.60;10.30;;;11.70;99.90;;;;;;5016510;28;20413;-53
2021/12/13 13:29:48;;;;;;;10.77;9.50;;;11.80;99.90;;;;;;5016392;28;20805;-55
2021/12/13 13:32:15;;;;;;;11.70;10.20;;;11.90;99.90;;;;;;5016642;28;20410;-56
2021/12/13 13:34:44;;;;;;;12.60;10.10;;;11.90;99.90;;;;;;5016190;28;20200;-55
2021/12/13 13:37:20;;;;;;;11.47;10.27;;;11.90;99.90;;;;;;5016012;28;20942;-56
2021/12/13 13:39:52;;;;;;;13.30;10.80;;;11.90;99.90;;;;;;5016083;28;20483;-58
2021/12/13 13:42:25;;;;;;;13.23;11.40;;;11.90;99.90;;;;;;5016131;28;20418;-54